Time;durP1;ratioP1;P1;durP2;ratioP2;P2;SDS_P1;SDS_P2;PMS_P1;PMS_P2;Temp;Humidity;BMP_temperature;BMP_pressure;BME280_temperature;BME280_humidity;BME280_pressure;Samples;Min_cycle;Max_cycle;Signal;HPM_P1;HPM_P2
2023/05/08 00:04:06;;;;;;;5.25;2.28;;;;;;;4.37;63.00;102528.94;10649545;27;20505;-72
2023/05/08 00:09:09;;;;;;;6.82;2.53;;;;;;;4.30;62.80;102529.91;10631536;27;20113;-72
2023/05/08 00:14:11;;;;;;;3.60;1.90;;;;;;;4.27;61.89;102525.69;10615425;27;20038;-73
2023/05/08 00:19:13;;;;;;;4.38;1.58;;;;;;;4.28;60.93;102524.66;10634596;27;20054;-73
2023/05/08 00:24:15;;;;;;;3.78;1.83;;;;;;;4.32;60.51;102530.53;10632537;27;20042;-72
2023/05/08 00:29:17;;;;;;;3.92;1.63;;;;;;;4.33;60.64;102533.06;10636983;27;20058;-72
2023/05/08 00:34:19;;;;;;;7.82;2.13;;;;;;;4.28;60.43;102530.09;10658830;27;20062;-72
2023/05/08 00:39:22;;;;;;;5.30;2.22;;;;;;;4.24;60.99;102526.09;10660965;27;20058;-73
2023/05/08 00:44:24;;;;;;;3.53;1.88;;;;;;;4.25;61.35;102530.50;10660544;27;20039;-76
2023/05/08 00:49:26;;;;;;;5.93;2.70;;;;;;;4.29;61.24;102537.22;10646682;27;20054;-72
2023/05/08 00:54:28;;;;;;;3.80;2.00;;;;;;;4.27;61.73;102539.28;10597802;27;20045;-74
2023/05/08 00:59:31;;;;;;;7.20;2.65;;;;;;;4.31;61.47;102540.56;10617652;27;20054;-74
2023/05/08 01:04:34;;;;;;;3.08;2.15;;;;;;;4.19;61.68;102542.97;10635264;27;20074;-74
2023/05/08 01:09:36;;;;;;;2.10;1.48;;;;;;;4.16;61.74;102542.50;10606878;27;20513;-73
2023/05/08 01:14:50;;;;;;;3.72;1.50;;;;;;;4.17;61.83;102544.22;10623719;27;20043;-73
2023/05/08 01:19:57;;;;;;;3.92;2.08;;;;;;;4.21;62.28;102548.22;10627124;28;20047;-73
2023/05/08 01:25:32;;;;;;;3.70;1.75;;;;;;;4.18;62.41;102543.19;10621067;28;20541;-73
2023/05/08 01:31:12;;;;;;;3.38;1.48;;;;;;;4.19;62.33;102539.41;10661797;27;20047;-73
2023/05/08 01:36:33;;;;;;;3.67;1.90;;;;;;;4.28;61.79;102548.28;10646761;27;20488;-72
2023/05/08 01:41:36;;;;;;;3.13;1.52;;;;;;;4.24;62.34;102545.94;10655394;27;20040;-72
2023/05/08 01:46:38;;;;;;;2.33;1.50;;;;;;;4.28;62.10;102549.13;10631464;27;20047;-72
2023/05/08 01:51:49;;;;;;;4.93;2.00;;;;;;;4.29;61.85;102558.94;10637229;27;20046;-72
2023/05/08 01:56:53;;;;;;;6.45;1.60;;;;;;;4.35;61.34;102558.19;10641471;27;20055;-72
2023/05/08 02:01:57;;;;;;;6.13;1.55;;;;;;;4.37;61.30;102550.69;10631695;27;20031;-72
2023/05/08 02:06:59;;;;;;;5.00;2.03;;;;;;;4.44;61.10;102551.59;10642352;27;20535;-72
2023/05/08 02:12:02;;;;;;;3.47;1.40;;;;;;;4.54;60.55;102551.28;10668118;27;20037;-72
2023/05/08 02:17:05;;;;;;;4.78;1.70;;;;;;;4.68;60.36;102555.78;10633447;27;20047;-71
2023/05/08 02:22:07;;;;;;;4.78;1.30;;;;;;;4.87;59.54;102557.03;10630695;27;20047;-72
2023/05/08 02:27:10;;;;;;;4.57;1.42;;;;;;;5.02;58.92;102559.63;10618411;27;20433;-72
2023/05/08 02:32:13;;;;;;;4.43;1.55;;;;;;;5.14;58.69;102553.44;10624646;27;20039;-73
2023/05/08 02:37:20;;;;;;;1.80;1.35;;;;;;;5.15;58.26;102566.03;10610677;27;20059;-71
2023/05/08 02:42:22;;;;;;;4.67;1.60;;;;;;;5.25;58.35;102545.78;10564546;27;20031;-72
2023/05/08 02:47:39;;;;;;;2.53;1.40;;;;;;;5.47;58.20;102552.00;10565509;27;20036;-73
2023/05/08 02:52:47;;;;;;;3.75;1.67;;;;;;;5.88;56.57;102557.44;10585167;27;20044;-72
2023/05/08 02:58:07;;;;;;;4.05;1.48;;;;;;;6.34;56.24;102555.75;10570335;27;20039;-72
2023/05/08 03:03:26;;;;;;;3.22;1.20;;;;;;;6.71;54.94;102550.75;10573722;27;20043;-72
2023/05/08 03:08:39;;;;;;;1.63;1.17;;;;;;;7.15;54.34;102541.09;10605997;27;20039;-72
2023/05/08 03:13:42;;;;;;;2.15;1.45;;;;;;;7.37;53.08;102539.81;10599512;27;20050;-72
2023/05/08 03:18:50;;;;;;;4.22;1.30;;;;;;;7.68;52.17;102546.47;10590425;27;20036;-72
2023/05/08 03:23:53;;;;;;;4.15;1.55;;;;;;;8.05;51.84;102544.81;10593762;27;20032;-72
2023/05/08 03:28:55;;;;;;;1.27;1.05;;;;;;;8.32;51.22;102537.31;10591767;27;20456;-72
2023/05/08 03:34:03;;;;;;;1.73;1.25;;;;;;;8.94;49.59;102546.59;10616960;27;20386;-73
2023/05/08 03:39:06;;;;;;;1.95;1.25;;;;;;;9.33;49.75;102546.19;10640346;27;20038;-72
2023/05/08 03:44:09;;;;;;;3.20;1.08;;;;;;;9.70;47.81;102554.44;10625025;27;20042;-73
2023/05/08 03:49:11;;;;;;;2.60;1.20;;;;;;;9.88;48.13;102548.94;10630963;27;20042;-73
2023/05/08 03:54:13;;;;;;;2.22;1.20;;;;;;;10.09;47.18;102552.31;10617756;27;20035;-73
2023/05/08 03:59:48;;;;;;;2.38;1.10;;;;;;;10.37;46.26;102552.56;10621746;27;20035;-72
2023/05/08 04:04:57;;;;;;;1.92;0.90;;;;;;;10.55;45.18;102543.44;10618586;27;20047;-73
2023/05/08 04:10:11;;;;;;;1.40;1.00;;;;;;;10.57;45.02;102550.34;10625441;27;20425;-73
2023/05/08 04:15:24;;;;;;;3.55;1.75;;;;;;;10.98;44.88;102551.41;10612603;27;20038;-73
2023/05/08 04:20:28;;;;;;;2.45;1.42;;;;;;;11.15;42.98;102552.38;10614022;27;20046;-73
2023/05/08 04:25:32;;;;;;;2.30;0.93;;;;;;;11.15;43.97;102544.13;10631541;27;20035;-73
2023/05/08 04:30:35;;;;;;;2.20;1.20;;;;;;;11.48;43.58;102548.19;10577866;27;20398;-73
2023/05/08 04:35:37;;;;;;;1.73;1.38;;;;;;;11.79;43.17;102549.69;10588097;28;20066;-73
2023/05/08 04:40:39;;;;;;;2.60;1.30;;;;;;;11.64;42.49;102558.44;10602034;28;20040;-73
2023/05/08 04:45:43;;;;;;;2.58;1.15;;;;;;;11.58;42.38;102548.41;10593146;28;20043;-73
2023/05/08 04:50:45;;;;;;;4.63;1.50;;;;;;;11.50;42.81;102557.03;10634677;28;20051;-73
2023/05/08 04:55:48;;;;;;;1.85;1.50;;;;;;;11.78;43.45;102548.88;10588535;28;20040;-73
2023/05/08 05:00:50;;;;;;;2.42;1.48;;;;;;;12.62;42.19;102551.88;10577211;28;20048;-74
2023/05/08 05:05:58;;;;;;;3.60;1.40;;;;;;;13.40;39.92;102547.41;10587988;28;20493;-73
2023/05/08 05:11:00;;;;;;;2.97;1.53;;;;;;;13.24;39.88;102549.09;10569780;28;20039;-73
2023/05/08 05:16:03;;;;;;;3.45;1.35;;;;;;;13.28;39.50;102547.50;10571693;27;20473;-73
2023/05/08 05:21:05;;;;;;;1.55;1.38;;;;;;;13.76;39.08;102545.97;10599035;27;20401;-74
2023/05/08 05:26:08;;;;;;;3.00;1.48;;;;;;;14.32;37.81;102545.81;10595543;27;20048;-74
2023/05/08 05:31:10;;;;;;;2.97;1.42;;;;;;;14.38;37.65;102550.28;10608384;27;20043;-74
2023/05/08 05:36:13;;;;;;;2.17;1.20;;;;;;;14.90;36.77;102552.47;10633766;27;20042;-74
2023/05/08 05:41:15;;;;;;;6.38;1.33;;;;;;;15.30;36.31;102563.03;10636502;27;20500;-74
2023/05/08 05:46:18;;;;;;;4.80;2.00;;;;;;;15.51;35.62;102559.28;10624347;27;20418;-73
2023/05/08 05:51:20;;;;;;;4.35;1.15;;;;;;;15.51;35.26;102569.53;10627420;27;20039;-72
2023/05/08 05:56:23;;;;;;;3.15;1.25;;;;;;;15.23;35.76;102577.06;10641502;27;20039;-73
2023/05/08 06:01:27;;;;;;;4.75;1.23;;;;;;;14.78;35.44;102577.53;10622336;27;20054;-74
2023/05/08 06:06:30;;;;;;;2.47;1.08;;;;;;;14.49;35.53;102579.72;10612490;27;20035;-75
2023/05/08 06:11:33;;;;;;;2.05;1.17;;;;;;;14.58;35.05;102569.88;10636463;27;20536;-74
2023/05/08 06:16:35;;;;;;;1.23;1.10;;;;;;;14.62;34.96;102572.94;10620395;27;20525;-75
2023/05/08 06:21:38;;;;;;;2.78;1.27;;;;;;;14.86;35.49;102570.69;10656683;27;20044;-77
2023/05/08 06:26:40;;;;;;;2.92;1.30;;;;;;;15.56;34.03;102567.59;10628976;27;20054;-75
2023/05/08 06:31:43;;;;;;;1.63;1.20;;;;;;;15.40;33.32;102571.38;10658872;27;20043;-75
2023/05/08 06:36:45;;;;;;;3.80;1.20;;;;;;;15.65;33.35;102577.13;10670246;27;20504;-74
2023/05/08 06:41:47;;;;;;;2.25;1.10;;;;;;;15.81;32.51;102571.66;10617211;27;20047;-74
2023/05/08 06:46:58;;;;;;;1.60;1.20;;;;;;;15.65;32.64;102571.56;10598078;28;20032;-74
2023/05/08 06:52:00;;;;;;;2.47;1.00;;;;;;;16.00;31.88;102567.31;10633495;27;20827;-75
2023/05/08 06:57:02;;;;;;;1.20;1.10;;;;;;;15.57;32.95;102569.28;10667796;27;20054;-73
2023/05/08 07:02:05;;;;;;;4.63;0.90;;;;;;;15.34;32.80;102575.22;10658845;27;20034;-74
2023/05/08 07:07:07;;;;;;;2.13;0.85;;;;;;;15.66;31.86;102572.41;10638059;27;20388;-75
2023/05/08 07:12:09;;;;;;;4.00;1.00;;;;;;;15.76;32.15;102577.16;10617095;27;20508;-75
2023/05/08 07:17:12;;;;;;;8.00;1.38;;;;;;;16.37;30.33;102567.16;10630784;27;20035;-76
2023/05/08 07:22:14;;;;;;;3.83;1.33;;;;;;;16.52;29.76;102566.38;10646121;27;20417;-77
2023/05/08 07:27:16;;;;;;;1.67;1.25;;;;;;;16.38;29.58;102574.38;10634713;27;20044;-76
2023/05/08 07:32:18;;;;;;;0.85;0.85;;;;;;;16.50;29.16;102577.72;10616651;27;20042;-76
2023/05/08 07:37:21;;;;;;;3.88;1.10;;;;;;;16.42;28.65;102581.03;10614614;27;20059;-75
2023/05/08 07:42:25;;;;;;;0.95;0.80;;;;;;;16.33;28.10;102571.59;10617590;27;20138;-76
2023/05/08 07:47:28;;;;;;;1.10;0.95;;;;;;;16.81;28.84;102573.06;10599068;28;20042;-73
2023/05/08 07:52:30;;;;;;;3.45;1.17;;;;;;;17.50;27.08;102571.63;10584802;28;20126;-74
2023/05/08 07:57:39;;;;;;;1.50;0.70;;;;;;;17.39;26.63;102583.88;10611649;28;20078;-75
2023/05/08 08:02:42;;;;;;;2.88;0.95;;;;;;;17.37;26.77;102575.00;10585665;28;20043;-75
2023/05/08 08:07:44;;;;;;;1.65;0.75;;;;;;;17.47;26.51;102580.53;10582020;28;20497;-74
2023/05/08 08:12:46;;;;;;;0.77;0.70;;;;;;;16.91;25.87;102580.56;10582649;28;20043;-74
2023/05/08 08:17:48;;;;;;;3.08;0.90;;;;;;;17.50;25.23;102579.97;10608135;28;20040;-73
2023/05/08 08:22:51;;;;;;;1.65;1.55;;;;;;;17.85;25.16;102579.06;10609986;28;20040;-73
2023/05/08 08:27:53;;;;;;;1.80;0.95;;;;;;;17.71;25.17;102575.25;10629258;27;20536;-74
2023/05/08 08:32:57;;;;;;;1.38;0.93;;;;;;;17.42;24.90;102586.94;10608435;27;20046;-72
2023/05/08 08:37:59;;;;;;;2.10;0.93;;;;;;;16.88;25.21;102581.97;10620406;27;20039;-72
2023/05/08 08:43:01;;;;;;;1.55;0.93;;;;;;;17.26;25.54;102573.34;10649709;28;20536;-72
2023/05/08 08:48:04;;;;;;;1.52;1.23;;;;;;;17.74;25.29;102580.22;10638105;28;20044;-72
2023/05/08 08:53:22;;;;;;;3.33;1.40;;;;;;;17.65;24.95;102579.94;10654302;27;20035;-74
2023/05/08 08:58:53;;;;;;;4.95;1.38;;;;;;;17.43;25.09;102573.88;10621650;27;20409;-74
2023/05/08 09:04:01;;;;;;;3.65;1.20;;;;;;;17.19;26.03;102570.88;10653358;27;20505;-73
2023/05/08 09:09:04;;;;;;;2.15;1.02;;;;;;;16.76;26.73;102563.94;10618714;27;20043;-74
2023/05/08 09:14:07;;;;;;;2.15;1.30;;;;;;;16.79;26.98;102564.19;10650108;27;20059;-75
2023/05/08 09:19:12;;;;;;;1.35;1.15;;;;;;;16.60;27.52;102571.34;10660706;27;20051;-76
2023/05/08 09:24:15;;;;;;;1.58;0.98;;;;;;;15.45;28.22;102582.50;10659308;27;20058;-74
2023/05/08 09:29:20;;;;;;;4.40;1.38;;;;;;;14.24;30.02;102577.50;10603752;27;20051;-74
2023/05/08 09:34:27;;;;;;;1.33;1.15;;;;;;;13.35;31.94;102572.13;10605240;27;20039;-73
2023/05/08 09:39:29;;;;;;;;;;;;;;;12.94;32.00;102568.72;10649158;27;20085;-73
2023/05/08 09:44:45;;;;;;;3.10;1.10;;;;;;;12.88;33.33;102566.13;10643266;27;19934;-73
2023/05/08 09:50:01;;;;;;;4.03;1.35;;;;;;;12.67;34.20;102557.50;10652530;27;20198;-73
2023/05/08 09:55:08;;;;;;;1.27;1.10;;;;;;;12.59;34.31;102565.31;10624290;27;20104;-73
2023/05/08 10:00:12;;;;;;;2.78;1.40;;;;;;;12.64;33.69;102563.50;10609746;27;20035;-73
2023/05/08 10:05:26;;;;;;;2.67;1.60;;;;;;;12.48;33.68;102560.69;10654026;27;20043;-73
2023/05/08 10:10:29;;;;;;;5.00;1.50;;;;;;;12.65;33.62;102547.78;10653503;27;20046;-73
2023/05/08 10:15:32;;;;;;;2.35;1.38;;;;;;;12.62;33.80;102537.28;10641623;27;20042;-78
2023/05/08 10:20:38;;;;;;;2.75;1.20;;;;;;;12.64;34.36;102551.63;10648186;27;20031;-76
2023/05/08 10:25:47;;;;;;;4.35;1.23;;;;;;;12.55;33.90;102542.13;10656903;27;20043;-83
2023/05/08 10:30:51;;;;;;;2.40;1.45;;;;;;;12.50;33.42;102540.13;10625454;27;20052;-79
2023/05/08 10:35:53;;;;;;;2.53;1.50;;;;;;;12.43;33.97;102542.19;10635017;27;20038;-78
2023/05/08 10:41:00;;;;;;;1.52;1.20;;;;;;;12.47;33.23;102539.75;10640567;27;20405;-91
2023/05/08 10:46:10;;;;;;;5.35;1.60;;;;;;;12.41;33.02;102535.25;10638099;27;20038;-74
2023/05/08 10:51:14;;;;;;;1.60;1.08;;;;;;;12.32;32.88;102527.41;10620023;27;20062;-77
2023/05/08 10:56:16;;;;;;;1.90;1.17;;;;;;;12.28;33.78;102520.69;10603841;27;20042;-82
2023/05/08 11:01:18;;;;;;;1.02;0.90;;;;;;;12.35;33.65;102520.56;10615806;27;20038;-75
2023/05/08 11:06:45;;;;;;;1.10;1.00;;;;;;;12.35;32.89;102513.16;10664680;27;20058;-75
2023/05/08 11:12:26;;;;;;;2.50;1.23;;;;;;;12.28;32.98;102508.84;10617337;27;20050;-73
2023/05/08 11:17:28;;;;;;;2.00;1.40;;;;;;;12.41;32.81;102499.47;10628881;27;20039;-74
2023/05/08 11:22:32;;;;;;;2.78;1.02;;;;;;;12.22;32.55;102505.19;10631429;27;20039;-74
2023/05/08 11:27:36;;;;;;;4.18;1.70;;;;;;;12.30;33.41;102502.00;10661561;27;20053;-73
2023/05/08 11:33:03;;;;;;;1.60;1.20;;;;;;;12.42;32.69;102495.63;10680119;27;20039;-73
2023/05/08 11:38:16;;;;;;;2.17;1.30;;;;;;;12.40;32.75;102486.78;10654725;27;20400;-73
2023/05/08 11:43:23;;;;;;;1.40;1.30;;;;;;;12.34;32.64;102496.88;10633644;27;20061;-73
2023/05/08 11:48:25;;;;;;;1.50;1.30;;;;;;;12.26;32.72;102491.75;10633118;27;20046;-73
2023/05/08 11:53:30;;;;;;;1.80;1.10;;;;;;;12.23;32.63;102495.84;10641862;27;20046;-74
2023/05/08 11:58:37;;;;;;;1.73;1.23;;;;;;;12.35;33.38;102491.13;10634717;27;20058;-75
2023/05/08 12:03:39;;;;;;;2.00;1.20;;;;;;;12.42;32.84;102476.34;10614339;27;20512;-74
2023/05/08 12:08:41;;;;;;;2.70;1.33;;;;;;;12.27;32.55;102477.75;10615959;27;20039;-75
2023/05/08 12:13:55;;;;;;;1.70;1.13;;;;;;;12.33;32.38;102470.44;10613209;27;20031;-76
2023/05/08 12:18:57;;;;;;;3.33;1.10;;;;;;;12.32;32.64;102465.97;10592894;27;20035;-76
2023/05/08 12:23:59;;;;;;;2.30;0.95;;;;;;;12.22;32.75;102466.66;10629664;27;20042;-75
2023/05/08 12:29:04;;;;;;;0.88;0.85;;;;;;;12.17;33.20;102458.31;10607797;27;20054;-76
2023/05/08 12:34:08;;;;;;;1.48;1.23;;;;;;;12.25;32.46;102451.56;10652862;27;20054;-76
2023/05/08 12:39:15;;;;;;;3.70;1.70;;;;;;;12.37;33.16;102447.66;10633352;27;20594;-80
2023/05/08 12:44:22;;;;;;;1.90;1.20;;;;;;;12.44;32.81;102447.47;10633831;28;20035;-75
2023/05/08 12:49:31;;;;;;;1.58;1.30;;;;;;;12.53;32.27;102445.16;10632429;28;20390;-75
2023/05/08 12:54:33;;;;;;;4.20;1.30;;;;;;;12.40;32.33;102431.72;10609822;28;20039;-74
2023/05/08 12:59:35;;;;;;;1.73;1.10;;;;;;;12.23;31.93;102429.78;10615082;28;20042;-77
2023/05/08 13:04:38;;;;;;;1.65;1.13;;;;;;;12.08;32.75;102426.75;10578700;28;20520;-75
2023/05/08 13:09:55;;;;;;;2.80;1.63;;;;;;;12.30;32.50;102413.94;10633922;28;20043;-76
2023/05/08 13:14:57;;;;;;;1.30;1.10;;;;;;;12.30;32.66;102413.09;10605848;28;20042;-76
2023/05/08 13:19:59;;;;;;;3.13;1.00;;;;;;;12.27;32.39;102414.44;10652122;28;20043;-75
2023/05/08 13:25:01;;;;;;;1.45;1.00;;;;;;;12.15;31.54;102399.06;10630798;28;20038;-77
2023/05/08 13:30:04;;;;;;;2.03;1.30;;;;;;;12.14;32.14;102402.91;10617107;28;20051;-76
2023/05/08 13:35:06;;;;;;;2.90;1.02;;;;;;;12.04;31.83;102392.56;10627012;27;20084;-76
2023/05/08 13:40:09;;;;;;;2.08;1.33;;;;;;;11.99;32.86;102389.75;10655940;27;20390;-78
2023/05/08 13:45:14;;;;;;;3.40;1.70;;;;;;;12.10;32.71;102391.56;10657911;27;20058;-77
2023/05/08 13:50:20;;;;;;;2.33;1.58;;;;;;;12.21;32.12;102389.84;10659492;27;20500;-75
2023/05/08 13:55:22;;;;;;;1.90;1.17;;;;;;;12.07;32.61;102394.81;10658903;27;20069;-77
2023/05/08 14:00:24;;;;;;;2.63;1.30;;;;;;;11.95;32.50;102394.03;10658929;27;20424;-77
2023/05/08 14:05:26;;;;;;;1.73;1.30;;;;;;;11.90;32.10;102381.03;10658648;27;20051;-77
2023/05/08 14:10:28;;;;;;;1.42;1.33;;;;;;;11.92;32.70;102378.88;10658678;27;20039;-76
2023/05/08 14:15:33;;;;;;;4.88;2.38;;;;;;;11.90;32.64;102388.47;10639823;27;20073;-77
2023/05/08 14:20:35;;;;;;;1.60;1.50;;;;;;;11.89;33.10;102379.38;10607314;27;20043;-76
2023/05/08 14:25:37;;;;;;;3.80;1.88;;;;;;;11.99;32.53;102376.81;10597312;28;20046;-76
2023/05/08 14:30:40;;;;;;;2.45;1.38;;;;;;;11.94;32.81;102373.13;10615151;28;20559;-77
2023/05/08 14:35:42;;;;;;;4.10;1.40;;;;;;;11.99;33.07;102371.31;10618388;27;20047;-77
2023/05/08 14:40:44;;;;;;;5.00;1.48;;;;;;;12.03;32.95;102357.88;10596335;28;20123;-77
2023/05/08 14:45:46;;;;;;;1.52;1.27;;;;;;;12.02;32.81;102367.22;10614259;28;20042;-76
2023/05/08 14:50:49;;;;;;;3.38;1.60;;;;;;;12.03;33.83;102361.47;10616657;27;20039;-75
2023/05/08 14:55:51;;;;;;;3.20;1.98;;;;;;;11.99;33.24;102353.97;10578608;28;20039;-76
2023/05/08 15:00:53;;;;;;;3.08;1.80;;;;;;;12.10;33.98;102353.03;10595033;28;20047;-75
2023/05/08 15:05:55;;;;;;;2.60;1.95;;;;;;;11.96;33.82;102355.28;10613095;28;20036;-74
2023/05/08 15:10:58;;;;;;;2.15;1.73;;;;;;;11.77;33.78;102346.38;10614490;27;20039;-77
2023/05/08 15:16:00;;;;;;;2.60;1.98;;;;;;;11.71;34.13;102344.63;10653374;27;20042;-77
2023/05/08 15:21:03;;;;;;;2.45;1.92;;;;;;;11.72;34.18;102343.56;10652202;27;20054;-77
2023/05/08 15:26:07;;;;;;;3.60;1.77;;;;;;;11.73;34.35;102344.38;10633281;27;20058;-76
2023/05/08 15:31:09;;;;;;;2.75;1.75;;;;;;;11.61;34.53;102341.69;10612967;28;20405;-77
2023/05/08 15:36:12;;;;;;;2.13;1.85;;;;;;;11.51;34.81;102341.50;10612406;28;20451;-76
2023/05/08 15:41:14;;;;;;;1.25;1.13;;;;;;;11.41;35.66;102349.53;10594308;28;20050;-76
2023/05/08 15:46:16;;;;;;;1.92;1.50;;;;;;;11.38;34.74;102333.56;10634363;27;20047;-76
2023/05/08 15:51:18;;;;;;;1.88;1.50;;;;;;;11.35;34.60;102345.88;10654378;27;20038;-76
2023/05/08 15:56:23;;;;;;;9.23;1.63;;;;;;;11.26;34.81;102339.09;10649717;27;20035;-76
2023/05/08 16:01:25;;;;;;;1.70;1.45;;;;;;;11.38;34.21;102333.56;10635188;27;20078;-76
2023/05/08 16:06:28;;;;;;;6.78;1.67;;;;;;;11.21;34.59;102336.25;10635378;27;20047;-76
2023/05/08 16:11:31;;;;;;;2.75;1.55;;;;;;;11.09;34.34;102340.91;10619019;27;20500;-76
2023/05/08 16:16:33;;;;;;;1.40;1.20;;;;;;;11.07;34.91;102332.09;10618333;27;20035;-76
2023/05/08 16:21:35;;;;;;;4.43;1.25;;;;;;;10.99;34.73;102336.06;10653470;27;20047;-76
2023/05/08 16:26:37;;;;;;;2.00;1.80;;;;;;;10.92;35.54;102320.78;10613842;27;20539;-77
2023/05/08 16:31:39;;;;;;;4.05;2.20;;;;;;;10.82;34.13;102330.50;10634494;27;20405;-76
2023/05/08 16:36:41;;;;;;;3.83;1.90;;;;;;;10.69;34.59;102329.91;10634570;28;20043;-75
2023/05/08 16:41:44;;;;;;;3.80;2.63;;;;;;;10.63;34.66;102325.38;10651564;27;20576;-77
2023/05/08 16:46:46;;;;;;;2.88;1.83;;;;;;;10.54;34.83;102317.50;10627722;27;20631;-76
2023/05/08 16:51:48;;;;;;;2.38;2.00;;;;;;;10.49;34.95;102325.63;10610147;28;20035;-80
2023/05/08 16:56:50;;;;;;;2.53;1.70;;;;;;;10.40;35.22;102320.72;10646919;27;20038;-82
2023/05/08 17:01:53;;;;;;;2.40;1.60;;;;;;;10.30;35.76;102320.50;10616857;27;20050;-83
2023/05/08 17:06:55;;;;;;;3.10;1.30;;;;;;;10.18;36.43;102313.06;10613786;28;20425;-81
2023/05/08 17:11:57;;;;;;;1.50;1.23;;;;;;;10.10;36.29;102315.34;10653069;27;20066;-81
2023/05/08 17:17:00;;;;;;;1.67;1.35;;;;;;;10.01;36.72;102319.47;10651426;27;20035;-85
2023/05/08 17:22:02;;;;;;;3.92;1.45;;;;;;;9.96;36.68;102317.47;10638435;27;20046;-79
2023/05/08 17:27:05;;;;;;;3.78;1.45;;;;;;;9.87;36.88;102316.94;10646380;27;20043;-77
2023/05/08 17:32:08;;;;;;;2.20;1.35;;;;;;;9.75;37.40;102321.59;10657078;27;20062;-85
2023/05/08 17:37:10;;;;;;;2.45;1.30;;;;;;;9.66;36.98;102320.25;10636278;27;20066;-79
2023/05/08 17:42:12;;;;;;;2.25;1.33;;;;;;;9.61;37.35;102333.81;10639604;27;20047;-80
2023/05/08 17:47:15;;;;;;;3.88;2.30;;;;;;;9.54;38.08;102325.69;10640257;27;20046;-78
2023/05/08 17:52:17;;;;;;;3.13;1.90;;;;;;;9.40;37.60;102323.38;10649301;27;20035;-78
2023/05/08 17:57:19;;;;;;;6.75;1.73;;;;;;;9.41;37.66;102331.38;10627270;27;20035;-79
2023/05/08 18:02:21;;;;;;;1.98;1.77;;;;;;;9.25;38.47;102337.50;10637763;27;20050;-79
2023/05/08 18:07:24;;;;;;;2.95;1.95;;;;;;;9.18;38.53;102345.78;10641081;27;20051;-81
2023/05/08 18:12:26;;;;;;;4.15;1.83;;;;;;;9.16;39.08;102341.59;10618144;27;20668;-79
2023/05/08 18:17:28;;;;;;;3.25;2.00;;;;;;;9.08;39.85;102345.50;10636876;27;20035;-78
2023/05/08 18:22:30;;;;;;;5.82;1.95;;;;;;;8.90;40.61;102351.81;10637367;27;20051;-80
2023/05/08 18:27:33;;;;;;;4.78;2.33;;;;;;;8.74;41.12;102349.69;10654963;27;20043;-77
2023/05/08 18:32:35;;;;;;;5.50;2.20;;;;;;;8.72;41.43;102355.38;10655905;27;20050;-82
2023/05/08 18:37:37;;;;;;;3.65;2.25;;;;;;;8.54;41.79;102354.53;10617616;27;20042;-77
2023/05/08 18:42:39;;;;;;;3.63;2.38;;;;;;;8.38;42.08;102355.94;10636840;27;20038;-78
2023/05/08 18:47:42;;;;;;;3.10;2.42;;;;;;;8.27;42.56;102353.88;10618376;27;20533;-76
2023/05/08 18:52:44;;;;;;;6.30;2.53;;;;;;;8.15;42.76;102346.41;10611137;27;20042;-76
2023/05/08 18:57:46;;;;;;;4.10;2.25;;;;;;;8.13;43.04;102362.19;10657630;27;20058;-77
2023/05/08 19:02:48;;;;;;;6.97;2.78;;;;;;;8.07;43.18;102365.84;10632667;27;20046;-76
2023/05/08 19:07:51;;;;;;;4.47;2.42;;;;;;;7.95;43.77;102361.28;10641626;27;20039;-76
2023/05/08 19:12:54;;;;;;;3.63;2.22;;;;;;;7.89;44.39;102363.03;10647108;27;20131;-75
2023/05/08 19:17:56;;;;;;;3.65;2.30;;;;;;;7.77;44.28;102362.06;10631539;27;20031;-73
2023/05/08 19:22:59;;;;;;;4.07;2.22;;;;;;;7.71;44.52;102361.03;10620560;27;20050;-73
2023/05/08 19:28:02;;;;;;;4.65;1.83;;;;;;;7.48;45.96;102364.34;10624861;27;20409;-72
2023/05/08 19:33:04;;;;;;;2.08;1.65;;;;;;;7.31;47.44;102365.91;10645390;27;20035;-71
2023/05/08 19:38:07;;;;;;;2.03;1.30;;;;;;;7.23;47.95;102363.41;10623971;27;20048;-73
2023/05/08 19:43:09;;;;;;;3.47;1.40;;;;;;;7.07;49.14;102366.63;10604671;27;20039;-72
2023/05/08 19:48:11;;;;;;;1.92;1.60;;;;;;;6.93;49.63;102358.47;10648202;27;20038;-72
2023/05/08 19:53:13;;;;;;;1.98;1.67;;;;;;;6.80;51.49;102357.69;10633975;27;20050;-72
2023/05/08 19:58:16;;;;;;;2.92;1.30;;;;;;;6.73;51.76;102354.97;10635960;27;20027;-76
2023/05/08 20:03:19;;;;;;;3.10;1.83;;;;;;;6.68;52.15;102353.94;10608572;27;20047;-73
2023/05/08 20:08:21;;;;;;;3.58;2.00;;;;;;;6.51;52.66;102351.66;10623287;27;20062;-74
2023/05/08 20:13:23;;;;;;;3.25;2.00;;;;;;;6.39;53.64;102349.78;10612156;27;20042;-73
2023/05/08 20:18:25;;;;;;;2.40;2.05;;;;;;;6.47;53.66;102357.75;10627614;27;20043;-74
2023/05/08 20:23:28;;;;;;;2.95;2.05;;;;;;;6.34;53.79;102345.81;10631770;27;20050;-74
2023/05/08 20:28:31;;;;;;;3.03;1.65;;;;;;;6.34;53.56;102348.53;10613274;27;20054;-74
2023/05/08 20:33:34;;;;;;;2.60;1.48;;;;;;;6.38;54.06;102350.81;10603351;28;20044;-73
2023/05/08 20:38:37;;;;;;;2.92;1.98;;;;;;;6.33;54.30;102346.00;10580028;28;20501;-73
2023/05/08 20:43:39;;;;;;;3.92;1.90;;;;;;;6.19;54.48;102347.06;10573715;28;20416;-72
2023/05/08 20:48:42;;;;;;;3.22;2.08;;;;;;;6.14;54.07;102344.97;10620643;27;20028;-77
2023/05/08 20:53:44;;;;;;;4.10;2.00;;;;;;;6.06;54.81;102339.72;10593196;28;20035;-77
2023/05/08 20:58:46;;;;;;;2.15;1.73;;;;;;;6.09;55.29;102336.59;10605901;28;20039;-75
2023/05/08 21:03:48;;;;;;;6.50;2.20;;;;;;;6.05;55.56;102335.31;10570164;28;20516;-76
2023/05/08 21:08:51;;;;;;;2.42;2.00;;;;;;;6.00;55.31;102330.50;10600379;28;20036;-76
2023/05/08 21:13:53;;;;;;;5.65;2.15;;;;;;;6.11;54.96;102329.06;10608308;28;20039;-76
2023/05/08 21:18:55;;;;;;;5.28;2.15;;;;;;;6.20;55.22;102327.78;10605373;28;20040;-75
2023/05/08 21:23:58;;;;;;;9.10;2.38;;;;;;;6.22;55.32;102331.13;10588817;28;20036;-75
2023/05/08 21:29:02;;;;;;;3.38;1.92;;;;;;;6.11;56.64;102317.31;10587837;28;20040;-76
2023/05/08 21:34:05;;;;;;;2.90;2.03;;;;;;;6.08;56.55;102332.19;10607459;28;20043;-75
2023/05/08 21:39:08;;;;;;;3.20;1.90;;;;;;;6.10;56.82;102321.94;10590683;28;20055;-75
2023/05/08 21:44:11;;;;;;;3.17;2.22;;;;;;;6.05;56.83;102329.88;10578335;28;20035;-74
2023/05/08 21:49:13;;;;;;;3.00;1.95;;;;;;;5.98;56.97;102323.59;10592171;28;20046;-75
2023/05/08 21:54:16;;;;;;;5.85;2.20;;;;;;;6.05;56.96;102325.25;10582955;28;20035;-74
2023/05/08 21:59:18;;;;;;;3.42;2.35;;;;;;;6.03;57.14;102319.19;10586665;28;20511;-74
2023/05/08 22:04:20;;;;;;;3.70;2.08;;;;;;;5.95;57.84;102321.28;10615642;28;20039;-74
2023/05/08 22:09:22;;;;;;;5.13;2.25;;;;;;;5.94;57.44;102327.78;10615404;28;20051;-73
2023/05/08 22:14:24;;;;;;;5.18;2.80;;;;;;;5.87;58.10;102324.19;10610578;28;20039;-74
2023/05/08 22:19:26;;;;;;;4.53;2.22;;;;;;;5.98;58.15;102321.72;10615269;28;20521;-74
2023/05/08 22:24:28;;;;;;;4.68;2.70;;;;;;;5.99;57.64;102317.09;10595382;28;20043;-74
2023/05/08 22:29:31;;;;;;;6.60;3.55;;;;;;;6.03;57.30;102319.19;10634626;27;20422;-74
2023/05/08 22:34:33;;;;;;;4.88;2.70;;;;;;;5.89;56.97;102317.47;10649458;27;20043;-73
2023/05/08 22:39:35;;;;;;;3.28;2.47;;;;;;;5.81;56.92;102316.84;10635410;27;20046;-74
2023/05/08 22:44:37;;;;;;;4.30;2.60;;;;;;;5.80;56.96;102313.28;10654022;27;20035;-73
2023/05/08 22:49:40;;;;;;;3.63;2.40;;;;;;;5.81;57.13;102320.41;10654250;27;20051;-74
2023/05/08 22:54:42;;;;;;;3.85;2.45;;;;;;;5.83;56.31;102318.31;10635412;27;20043;-74
2023/05/08 22:59:44;;;;;;;6.38;3.03;;;;;;;5.83;56.15;102312.88;10634646;27;20420;-74
2023/05/08 23:04:46;;;;;;;6.68;3.13;;;;;;;5.81;55.10;102316.84;10634684;27;20046;-74
2023/05/08 23:09:49;;;;;;;5.57;2.50;;;;;;;5.74;54.35;102327.75;10631602;27;20050;-74
2023/05/08 23:14:51;;;;;;;5.32;2.70;;;;;;;5.80;54.09;102323.34;10633109;27;20039;-74
2023/05/08 23:19:53;;;;;;;3.42;2.22;;;;;;;5.79;53.81;102321.66;10650958;27;20035;-75
2023/05/08 23:24:56;;;;;;;4.65;2.28;;;;;;;5.79;53.62;102318.94;10651191;27;20039;-75
2023/05/08 23:29:58;;;;;;;4.32;2.65;;;;;;;5.76;53.32;102317.47;10609120;27;20528;-74